RYR51XY LFMU-EGGW
Flight info
| Callsign | RYR51XY |
|---|---|
| Flight time | N/A |
| Altitude | 36000 |
| Route | FJR DCT NG DCT MOLEN DCT MTL DCT ETREK DCT MADOT DCT MOPEM DCT CACHI DCT AVLON DCT OKRIX DCT BRY DCT CLM DCT KOPOR DCT PIREG DCT SOSUN DCT SUBIP UM733 UNDUG |
| Aircraft | B738/M-SDE3FGILRWY/SB1 |
Departure
| Time | 2026-04-22 12:19 |
|---|---|
| Airport | Béziers Vias airport (LFMU) |
Arrival
| Time | N/A |
|---|---|
| Airport | London Luton Airport (EGGW) |
| Time | Latitude | Longitude | Altitude | Speed | Heading |
|---|---|---|---|---|---|
| 2026-04-22 11:46 | 43.32140 | 3.35386 | 55 ft | 0 kts | 309° |
| 2026-04-22 12:15 | 43.32156 | 3.35359 | 56 ft | 9 kts | 310° |
| 2026-04-22 12:16 | 43.32246 | 3.35326 | 55 ft | 18 kts | 4° |
| 2026-04-22 12:16 | 43.32346 | 3.35261 | 56 ft | 19 kts | 282° |
| 2026-04-22 12:16 | 43.32358 | 3.35085 | 53 ft | 18 kts | 274° |
| 2026-04-22 12:16 | 43.32367 | 3.34915 | 51 ft | 18 kts | 274° |
| 2026-04-22 12:17 | 43.32376 | 3.34726 | 58 ft | 23 kts | 272° |
| 2026-04-22 12:17 | 43.32378 | 3.34503 | 59 ft | 23 kts | 274° |
| 2026-04-22 12:17 | 43.32397 | 3.34299 | 54 ft | 17 kts | 278° |
| 2026-04-22 12:17 | 43.32385 | 3.34201 | 60 ft | 3 kts | 313° |
| 2026-04-22 12:18 | 43.32406 | 3.34211 | 54 ft | 5 kts | 65° |
| 2026-04-22 12:18 | 43.32406 | 3.34232 | 59 ft | 2 kts | 90° |
| 2026-04-22 12:18 | 43.32383 | 3.34653 | 50 ft | 85 kts | 94° |
| 2026-04-22 12:18 | 43.32325 | 3.35793 | 85 ft | 150 kts | 94° |
| 2026-04-22 12:19 | 43.32239 | 3.37354 | 568 ft | 176 kts | 94° |
| 2026-04-22 12:19 | 43.32185 | 3.39093 | 1403 ft | 184 kts | 84° |
| 2026-04-22 12:19 | 43.32698 | 3.40720 | 2276 ft | 196 kts | 58° |
| 2026-04-22 12:19 | 43.33603 | 3.42258 | 2522 ft | 219 kts | 53° |
| 2026-04-22 12:20 | 43.34640 | 3.43882 | 2922 ft | 231 kts | 52° |
| 2026-04-22 12:20 | 43.35711 | 3.45564 | 3470 ft | 240 kts | 52° |
| 2026-04-22 12:20 | 43.36846 | 3.47373 | 3861 ft | 256 kts | 52° |
| 2026-04-22 12:20 | 43.38006 | 3.49245 | 4681 ft | 258 kts | 52° |
| 2026-04-22 12:21 | 43.39178 | 3.51155 | 5343 ft | 267 kts | 51° |
| 2026-04-22 12:21 | 43.40388 | 3.53146 | 5975 ft | 275 kts | 49° |
| 2026-04-22 12:21 | 43.41630 | 3.55195 | 6667 ft | 281 kts | 47° |
| 2026-04-22 12:21 | 43.42882 | 3.57268 | 7402 ft | 284 kts | 47° |
| 2026-04-22 12:22 | 43.44127 | 3.59402 | 8100 ft | 289 kts | 53° |
| 2026-04-22 12:22 | 43.45142 | 3.61833 | 8794 ft | 296 kts | 59° |
| 2026-04-22 12:22 | 43.46053 | 3.64411 | 9490 ft | 302 kts | 60° |
| 2026-04-22 12:22 | 43.46957 | 3.67043 | 10156 ft | 307 kts | 60° |
| 2026-04-22 12:23 | 43.47887 | 3.69726 | 10481 ft | 325 kts | 60° |
| 2026-04-22 12:23 | 43.48920 | 3.72659 | 10674 ft | 346 kts | 60° |
| 2026-04-22 12:23 | 43.49984 | 3.75654 | 11100 ft | 358 kts | 60° |
| 2026-04-22 12:23 | 43.51090 | 3.78757 | 11709 ft | 363 kts | 60° |
| 2026-04-22 12:24 | 43.52208 | 3.81884 | 12408 ft | 366 kts | 60° |
| 2026-04-22 12:24 | 43.53340 | 3.85043 | 13104 ft | 370 kts | 60° |
| 2026-04-22 12:24 | 43.54489 | 3.88247 | 13779 ft | 375 kts | 60° |
| 2026-04-22 12:24 | 43.55650 | 3.91485 | 14427 ft | 379 kts | 60° |
| 2026-04-22 12:25 | 43.56820 | 3.94750 | 15136 ft | 381 kts | 60° |
| 2026-04-22 12:25 | 43.58066 | 3.97980 | 15847 ft | 381 kts | 51° |
| 2026-04-22 12:25 | 43.59753 | 4.00772 | 16532 ft | 380 kts | 44° |
| 2026-04-22 12:25 | 43.61544 | 4.03467 | 17224 ft | 382 kts | 43° |
| 2026-04-22 12:26 | 43.62745 | 4.05254 | 17665 ft | 385 kts | 43° |
| 2026-04-22 12:26 | 43.65188 | 4.08912 | 18528 ft | 390 kts | 44° |
| 2026-04-22 12:26 | 43.67023 | 4.11693 | 19091 ft | 393 kts | 44° |
| 2026-04-22 12:26 | 43.68861 | 4.14505 | 19652 ft | 396 kts | 44° |
| 2026-04-22 12:27 | 43.70711 | 4.17352 | 20191 ft | 400 kts | 44° |
| 2026-04-22 12:27 | 43.72574 | 4.20229 | 20762 ft | 403 kts | 45° |
| 2026-04-22 12:27 | 43.74449 | 4.23130 | 21318 ft | 406 kts | 45° |
| 2026-04-22 12:27 | 43.76339 | 4.26058 | 21857 ft | 410 kts | 45° |
| 2026-04-22 12:28 | 43.78246 | 4.29014 | 22396 ft | 413 kts | 45° |
| 2026-04-22 12:28 | 43.80164 | 4.31990 | 22926 ft | 416 kts | 45° |
| 2026-04-22 12:28 | 43.82096 | 4.34989 | 23442 ft | 419 kts | 45° |
| 2026-04-22 12:28 | 43.84082 | 4.37956 | 23888 ft | 420 kts | 39° |
| 2026-04-22 12:29 | 43.86365 | 4.40474 | 24309 ft | 419 kts | 30° |
| 2026-04-22 12:29 | 43.88889 | 4.42448 | 24746 ft | 416 kts | 20° |
| 2026-04-22 12:29 | 43.91577 | 4.43930 | 25178 ft | 416 kts | 17° |
| 2026-04-22 12:29 | 43.94299 | 4.45336 | 25587 ft | 419 kts | 17° |
| 2026-04-22 12:30 | 43.99789 | 4.48204 | 26374 ft | 424 kts | 18° |
| 2026-04-22 12:30 | 44.01615 | 4.49186 | 26641 ft | 426 kts | 18° |
| 2026-04-22 12:30 | 44.04384 | 4.50686 | 27037 ft | 428 kts | 18° |
| 2026-04-22 12:31 | 44.07169 | 4.52193 | 27419 ft | 431 kts | 18° |
| 2026-04-22 12:31 | 44.09976 | 4.53688 | 27781 ft | 433 kts | 17° |
| 2026-04-22 12:31 | 44.12798 | 4.55180 | 28142 ft | 436 kts | 18° |
| 2026-04-22 12:31 | 44.15640 | 4.56681 | 28495 ft | 438 kts | 18° |
| 2026-04-22 12:32 | 44.18501 | 4.58195 | 28831 ft | 441 kts | 18° |
| 2026-04-22 12:32 | 44.24270 | 4.61260 | 29482 ft | 446 kts | 18° |
| 2026-04-22 12:32 | 44.27180 | 4.62811 | 29802 ft | 449 kts | 18° |
| 2026-04-22 12:33 | 44.30097 | 4.64368 | 30105 ft | 451 kts | 18° |
| 2026-04-22 12:33 | 44.33037 | 4.65939 | 30412 ft | 452 kts | 17° |
| 2026-04-22 12:33 | 44.35965 | 4.67506 | 30849 ft | 449 kts | 17° |
| 2026-04-22 12:33 | 44.38868 | 4.69063 | 31325 ft | 446 kts | 17° |
| 2026-04-22 12:34 | 44.41756 | 4.70612 | 31767 ft | 443 kts | 17° |
| 2026-04-22 12:34 | 44.44631 | 4.72154 | 32162 ft | 442 kts | 17° |
| 2026-04-22 12:34 | 44.47493 | 4.73690 | 32510 ft | 441 kts | 16° |
| 2026-04-22 12:34 | 44.50353 | 4.75227 | 32902 ft | 439 kts | 16° |
| 2026-04-22 12:35 | 44.53228 | 4.76561 | 33297 ft | 432 kts | 8° |
| 2026-04-22 12:35 | 44.56171 | 4.77209 | 33687 ft | 425 kts | 359° |
| 2026-04-22 12:35 | 44.59099 | 4.77262 | 34076 ft | 417 kts | 351° |
| 2026-04-22 12:35 | 44.61954 | 4.76727 | 34405 ft | 413 kts | 347° |
| 2026-04-22 12:36 | 44.64781 | 4.76079 | 34713 ft | 411 kts | 346° |
| 2026-04-22 12:36 | 44.67561 | 4.75424 | 34988 ft | 410 kts | 346° |
| 2026-04-22 12:36 | 44.70370 | 4.74766 | 35269 ft | 409 kts | 347° |
| 2026-04-22 12:36 | 44.73178 | 4.74120 | 35542 ft | 408 kts | 347° |
| 2026-04-22 12:37 | 44.75977 | 4.73485 | 35809 ft | 407 kts | 347° |
| 2026-04-22 12:37 | 44.78770 | 4.72859 | 36079 ft | 406 kts | 347° |
| 2026-04-22 12:37 | 44.84395 | 4.71604 | 36106 ft | 411 kts | 347° |
| 2026-04-22 12:38 | 44.90016 | 4.70354 | 36092 ft | 406 kts | 347° |
| 2026-04-22 12:38 | 44.95562 | 4.69118 | 36091 ft | 402 kts | 347° |
| 2026-04-22 12:39 | 45.03841 | 4.67264 | 36099 ft | 401 kts | 347° |
| 2026-04-22 12:40 | 45.09349 | 4.66027 | 36088 ft | 401 kts | 347° |
| 2026-04-22 12:40 | 45.14860 | 4.64788 | 36091 ft | 401 kts | 347° |
| 2026-04-22 12:41 | 45.20375 | 4.63544 | 36081 ft | 401 kts | 347° |
| 2026-04-22 12:41 | 45.25896 | 4.62282 | 36074 ft | 402 kts | 347° |
| 2026-04-22 12:42 | 45.31424 | 4.61013 | 36087 ft | 403 kts | 347° |
| 2026-04-22 12:42 | 45.36965 | 4.59740 | 36084 ft | 404 kts | 347° |
| 2026-04-22 12:43 | 45.42513 | 4.58463 | 36075 ft | 404 kts | 347° |
| 2026-04-22 12:43 | 45.48058 | 4.57184 | 36076 ft | 404 kts | 347° |
| 2026-04-22 12:44 | 45.53601 | 4.55904 | 36079 ft | 403 kts | 347° |
| 2026-04-22 12:44 | 45.59136 | 4.54623 | 36079 ft | 402 kts | 347° |
| 2026-04-22 12:45 | 45.64655 | 4.53342 | 36083 ft | 402 kts | 347° |
| 2026-04-22 12:45 | 45.70167 | 4.52061 | 36089 ft | 401 kts | 347° |
| 2026-04-22 12:46 | 45.75671 | 4.50780 | 36088 ft | 400 kts | 347° |
| 2026-04-22 12:46 | 45.81159 | 4.49504 | 36079 ft | 399 kts | 347° |
| 2026-04-22 12:47 | 45.86632 | 4.48228 | 36094 ft | 399 kts | 347° |
| 2026-04-22 12:47 | 45.92104 | 4.46949 | 36097 ft | 398 kts | 347° |
| 2026-04-22 12:48 | 45.97578 | 4.45668 | 36100 ft | 398 kts | 347° |
| 2026-04-22 12:48 | 46.03042 | 4.44385 | 36098 ft | 398 kts | 347° |
| 2026-04-22 12:49 | 46.08505 | 4.43101 | 36100 ft | 397 kts | 346° |
| 2026-04-22 12:49 | 46.13960 | 4.41816 | 36098 ft | 397 kts | 346° |
| 2026-04-22 12:50 | 46.19426 | 4.40525 | 36090 ft | 398 kts | 346° |
| 2026-04-22 12:50 | 46.24852 | 4.39242 | 36099 ft | 398 kts | 346° |
| 2026-04-22 12:51 | 46.30297 | 4.37828 | 36099 ft | 396 kts | 343° |
| 2026-04-22 12:51 | 46.35649 | 4.35969 | 36105 ft | 396 kts | 342° |
| 2026-04-22 12:52 | 46.40991 | 4.34041 | 36106 ft | 396 kts | 342° |
| 2026-04-22 12:52 | 46.46344 | 4.32135 | 36106 ft | 396 kts | 342° |
| 2026-04-22 12:53 | 46.51700 | 4.30246 | 36102 ft | 396 kts | 342° |
| 2026-04-22 12:53 | 46.57056 | 4.28361 | 36111 ft | 396 kts | 342° |
| 2026-04-22 12:54 | 46.62420 | 4.26469 | 36098 ft | 397 kts | 342° |
| 2026-04-22 12:54 | 46.67778 | 4.24576 | 36107 ft | 396 kts | 342° |
| 2026-04-22 12:55 | 46.73139 | 4.22677 | 36114 ft | 396 kts | 342° |
| 2026-04-22 12:55 | 46.78494 | 4.20776 | 36109 ft | 396 kts | 342° |
| 2026-04-22 12:56 | 46.83848 | 4.18873 | 36117 ft | 396 kts | 342° |
| 2026-04-22 12:56 | 46.89197 | 4.16966 | 36109 ft | 395 kts | 342° |
| 2026-04-22 12:57 | 46.94537 | 4.15060 | 36111 ft | 395 kts | 342° |
| 2026-04-22 12:57 | 46.99876 | 4.13149 | 36112 ft | 395 kts | 342° |
| 2026-04-22 12:58 | 47.05217 | 4.11234 | 36113 ft | 395 kts | 342° |
| 2026-04-22 12:58 | 47.10369 | 4.08627 | 36116 ft | 390 kts | 334° |
| 2026-04-22 12:59 | 47.15392 | 4.05608 | 36114 ft | 390 kts | 334° |
| 2026-04-22 12:59 | 47.20414 | 4.02595 | 36121 ft | 390 kts | 334° |
| 2026-04-22 13:00 | 47.25447 | 3.99594 | 36117 ft | 390 kts | 334° |
| 2026-04-22 13:00 | 47.30482 | 3.96594 | 36123 ft | 390 kts | 334° |
| 2026-04-22 13:01 | 47.35517 | 3.93590 | 36122 ft | 391 kts | 334° |
| 2026-04-22 13:01 | 47.40558 | 3.90576 | 36125 ft | 391 kts | 334° |
| 2026-04-22 13:02 | 47.45594 | 3.87558 | 36128 ft | 391 kts | 334° |
| 2026-04-22 13:02 | 47.50632 | 3.84532 | 36127 ft | 391 kts | 334° |
| 2026-04-22 13:03 | 47.55664 | 3.81505 | 36130 ft | 390 kts | 334° |
| 2026-04-22 13:03 | 47.60698 | 3.78484 | 36131 ft | 390 kts | 334° |
| 2026-04-22 13:04 | 47.65730 | 3.75468 | 36132 ft | 390 kts | 334° |
| 2026-04-22 13:04 | 47.70760 | 3.72445 | 36133 ft | 390 kts | 334° |
| 2026-04-22 13:05 | 47.75792 | 3.69412 | 36137 ft | 390 kts | 334° |
| 2026-04-22 13:05 | 47.80820 | 3.66375 | 36134 ft | 390 kts | 334° |
| 2026-04-22 13:06 | 47.85849 | 3.63331 | 36141 ft | 390 kts | 335° |
| 2026-04-22 13:06 | 47.90841 | 3.60303 | 36142 ft | 390 kts | 335° |
| 2026-04-22 13:07 | 47.95899 | 3.57229 | 36144 ft | 390 kts | 335° |
| 2026-04-22 13:07 | 48.00891 | 3.54175 | 36147 ft | 390 kts | 334° |
| 2026-04-22 13:08 | 48.05913 | 3.51084 | 36148 ft | 390 kts | 334° |
| 2026-04-22 13:08 | 48.10935 | 3.47986 | 36150 ft | 390 kts | 334° |
| 2026-04-22 13:09 | 48.15957 | 3.44884 | 36159 ft | 391 kts | 334° |
| 2026-04-22 13:09 | 48.20984 | 3.41772 | 36156 ft | 391 kts | 334° |
| 2026-04-22 13:10 | 48.26009 | 3.38655 | 36165 ft | 391 kts | 334° |
| 2026-04-22 13:10 | 48.31047 | 3.35522 | 36161 ft | 392 kts | 334° |
| 2026-04-22 13:11 | 48.36083 | 3.32385 | 36167 ft | 392 kts | 334° |
| 2026-04-22 13:11 | 48.41122 | 3.29238 | 36168 ft | 392 kts | 334° |
| 2026-04-22 13:12 | 48.46149 | 3.26049 | 36171 ft | 392 kts | 334° |
| 2026-04-22 13:12 | 48.51171 | 3.22839 | 36172 ft | 392 kts | 334° |
| 2026-04-22 13:13 | 48.56194 | 3.19626 | 36165 ft | 392 kts | 334° |
| 2026-04-22 13:13 | 48.61218 | 3.16407 | 36179 ft | 392 kts | 334° |
| 2026-04-22 13:14 | 48.66246 | 3.13179 | 36178 ft | 393 kts | 334° |
| 2026-04-22 13:14 | 48.71273 | 3.09945 | 36193 ft | 393 kts | 334° |
| 2026-04-22 13:15 | 48.76307 | 3.06699 | 36192 ft | 393 kts | 334° |
| 2026-04-22 13:15 | 48.81344 | 3.03445 | 36201 ft | 394 kts | 334° |
| 2026-04-22 13:16 | 48.85491 | 3.00608 | 36191 ft | 392 kts | 329° |
| 2026-04-22 13:16 | 48.90231 | 2.96495 | 36202 ft | 392 kts | 328° |
| 2026-04-22 13:17 | 48.94947 | 2.92307 | 36209 ft | 393 kts | 328° |
| 2026-04-22 13:17 | 48.99679 | 2.88123 | 36217 ft | 393 kts | 328° |
| 2026-04-22 13:18 | 49.04423 | 2.83941 | 36222 ft | 394 kts | 328° |
| 2026-04-22 13:18 | 49.09166 | 2.79759 | 36218 ft | 394 kts | 328° |
| 2026-04-22 13:19 | 49.13915 | 2.75563 | 36223 ft | 394 kts | 328° |
| 2026-04-22 13:19 | 49.18666 | 2.71354 | 36215 ft | 395 kts | 328° |
| 2026-04-22 13:20 | 49.23418 | 2.67136 | 36223 ft | 395 kts | 328° |
| 2026-04-22 13:20 | 49.28171 | 2.62908 | 36227 ft | 395 kts | 328° |
| 2026-04-22 13:21 | 49.32923 | 2.58670 | 36211 ft | 395 kts | 328° |
| 2026-04-22 13:21 | 49.37672 | 2.54426 | 36232 ft | 395 kts | 328° |
| 2026-04-22 13:22 | 49.42425 | 2.50169 | 36239 ft | 395 kts | 328° |
| 2026-04-22 13:22 | 49.47145 | 2.45932 | 36239 ft | 396 kts | 328° |
| 2026-04-22 13:23 | 49.51834 | 2.41511 | 36221 ft | 395 kts | 322° |
| 2026-04-22 13:23 | 49.55985 | 2.35910 | 36228 ft | 395 kts | 317° |
| 2026-04-22 13:24 | 49.60024 | 2.30258 | 36236 ft | 395 kts | 317° |
| 2026-04-22 13:24 | 49.64097 | 2.24587 | 36234 ft | 395 kts | 317° |
| 2026-04-22 13:25 | 49.68184 | 2.18912 | 36237 ft | 395 kts | 317° |
| 2026-04-22 13:25 | 49.72269 | 2.13235 | 36226 ft | 396 kts | 317° |
| 2026-04-22 13:26 | 49.76359 | 2.07537 | 36220 ft | 396 kts | 317° |
| 2026-04-22 13:26 | 49.80445 | 2.01831 | 36235 ft | 396 kts | 317° |
| 2026-04-22 13:27 | 49.84537 | 1.96104 | 36232 ft | 396 kts | 317° |
| 2026-04-22 13:27 | 49.88158 | 1.89695 | 36241 ft | 397 kts | 304° |
| 2026-04-22 13:28 | 49.90596 | 1.82014 | 36243 ft | 399 kts | 294° |
| 2026-04-22 13:28 | 49.92663 | 1.74020 | 36232 ft | 399 kts | 294° |
| 2026-04-22 13:29 | 49.94752 | 1.66037 | 36239 ft | 399 kts | 294° |
| 2026-04-22 13:29 | 49.96858 | 1.58054 | 36242 ft | 400 kts | 294° |
| 2026-04-22 13:30 | 49.99685 | 1.50688 | 36248 ft | 397 kts | 309° |
| 2026-04-22 13:30 | 50.03592 | 1.44709 | 36246 ft | 397 kts | 318° |
| 2026-04-22 13:31 | 50.07786 | 1.39091 | 36245 ft | 398 kts | 319° |
| 2026-04-22 13:31 | 50.11978 | 1.33443 | 36245 ft | 398 kts | 318° |
| 2026-04-22 13:32 | 50.16124 | 1.27799 | 36235 ft | 391 kts | 318° |
| 2026-04-22 13:32 | 50.20179 | 1.22245 | 36246 ft | 386 kts | 318° |
| 2026-04-22 13:33 | 50.24218 | 1.16698 | 35874 ft | 384 kts | 318° |
| 2026-04-22 13:33 | 50.26207 | 1.13961 | 35485 ft | 379 kts | 317° |
| 2026-04-22 13:33 | 50.28176 | 1.11249 | 35137 ft | 375 kts | 317° |
| 2026-04-22 13:33 | 50.30122 | 1.08565 | 34764 ft | 372 kts | 317° |
| 2026-04-22 13:34 | 50.32050 | 1.05903 | 34399 ft | 368 kts | 317° |
| 2026-04-22 13:34 | 50.33965 | 1.03257 | 33991 ft | 365 kts | 317° |
| 2026-04-22 13:34 | 50.35860 | 1.00634 | 33599 ft | 362 kts | 317° |
| 2026-04-22 13:34 | 50.37734 | 0.98038 | 33227 ft | 358 kts | 318° |
| 2026-04-22 13:35 | 50.39590 | 0.95464 | 32874 ft | 354 kts | 318° |
| 2026-04-22 13:35 | 50.41422 | 0.92922 | 32503 ft | 351 kts | 318° |
| 2026-04-22 13:35 | 50.43241 | 0.90395 | 32159 ft | 347 kts | 318° |
| 2026-04-22 13:35 | 50.45045 | 0.87893 | 31808 ft | 344 kts | 319° |
| 2026-04-22 13:36 | 50.46825 | 0.85505 | 31525 ft | 340 kts | 320° |
| 2026-04-22 13:36 | 50.48624 | 0.83124 | 31176 ft | 337 kts | 320° |
| 2026-04-22 13:36 | 50.50411 | 0.80758 | 30838 ft | 335 kts | 320° |
| 2026-04-22 13:36 | 50.52180 | 0.78403 | 30501 ft | 332 kts | 320° |
| 2026-04-22 13:37 | 50.53934 | 0.76061 | 30141 ft | 330 kts | 320° |
| 2026-04-22 13:37 | 50.55677 | 0.73736 | 29758 ft | 327 kts | 320° |
| 2026-04-22 13:37 | 50.57401 | 0.71440 | 29422 ft | 323 kts | 320° |
| 2026-04-22 13:37 | 50.59107 | 0.69169 | 29069 ft | 319 kts | 320° |
| 2026-04-22 13:38 | 50.60791 | 0.66924 | 28723 ft | 316 kts | 320° |
| 2026-04-22 13:38 | 50.64127 | 0.62471 | 28038 ft | 313 kts | 320° |
| 2026-04-22 13:38 | 50.65786 | 0.60252 | 27711 ft | 315 kts | 320° |
| 2026-04-22 13:39 | 50.67483 | 0.57981 | 27383 ft | 327 kts | 320° |
| 2026-04-22 13:39 | 50.69238 | 0.55630 | 27014 ft | 332 kts | 321° |
| 2026-04-22 13:39 | 50.70993 | 0.53275 | 26648 ft | 330 kts | 321° |
| 2026-04-22 13:39 | 50.72732 | 0.50940 | 26294 ft | 327 kts | 321° |
| 2026-04-22 13:40 | 50.74458 | 0.48619 | 25943 ft | 325 kts | 321° |
| 2026-04-22 13:40 | 50.76172 | 0.46314 | 25596 ft | 322 kts | 321° |
| 2026-04-22 13:40 | 50.77870 | 0.44026 | 25251 ft | 320 kts | 321° |
| 2026-04-22 13:40 | 50.79561 | 0.41747 | 24900 ft | 319 kts | 321° |
| 2026-04-22 13:41 | 50.81243 | 0.39474 | 24543 ft | 317 kts | 321° |
| 2026-04-22 13:41 | 50.82917 | 0.37209 | 24215 ft | 316 kts | 321° |
| 2026-04-22 13:41 | 50.84583 | 0.34952 | 23884 ft | 315 kts | 321° |
| 2026-04-22 13:41 | 50.86243 | 0.32701 | 23510 ft | 313 kts | 321° |
| 2026-04-22 13:42 | 50.87894 | 0.30462 | 23150 ft | 312 kts | 321° |
| 2026-04-22 13:42 | 50.89531 | 0.28237 | 22821 ft | 309 kts | 321° |
| 2026-04-22 13:42 | 50.91157 | 0.26025 | 22506 ft | 307 kts | 321° |
| 2026-04-22 13:42 | 50.92766 | 0.23835 | 22181 ft | 305 kts | 321° |
| 2026-04-22 13:43 | 50.94371 | 0.21649 | 21848 ft | 303 kts | 321° |
| 2026-04-22 13:43 | 50.95964 | 0.19477 | 21537 ft | 301 kts | 322° |
| 2026-04-22 13:43 | 50.97550 | 0.17314 | 21226 ft | 301 kts | 321° |
| 2026-04-22 13:43 | 50.99146 | 0.15135 | 20903 ft | 303 kts | 321° |
| 2026-04-22 13:44 | 51.00750 | 0.12940 | 20480 ft | 305 kts | 321° |
| 2026-04-22 13:44 | 51.02388 | 0.10794 | 20256 ft | 305 kts | 325° |
| 2026-04-22 13:44 | 51.04134 | 0.08803 | 20129 ft | 315 kts | 327° |
| 2026-04-22 13:44 | 51.05973 | 0.06798 | 19986 ft | 325 kts | 328° |
| 2026-04-22 13:45 | 51.07850 | 0.04765 | 19826 ft | 328 kts | 327° |
| 2026-04-22 13:45 | 51.09731 | 0.02717 | 19659 ft | 327 kts | 328° |
| 2026-04-22 13:45 | 51.11601 | 0.00664 | 19513 ft | 327 kts | 327° |
| 2026-04-22 13:45 | 51.13467 | -0.01389 | 19356 ft | 326 kts | 327° |
| 2026-04-22 13:46 | 51.15334 | -0.03451 | 19223 ft | 326 kts | 327° |
| 2026-04-22 13:46 | 51.17198 | -0.05518 | 19065 ft | 327 kts | 327° |
| 2026-04-22 13:46 | 51.19065 | -0.07593 | 18927 ft | 327 kts | 327° |
| 2026-04-22 13:46 | 51.20931 | -0.09669 | 18788 ft | 328 kts | 327° |
| 2026-04-22 13:47 | 51.22811 | -0.11762 | 18634 ft | 330 kts | 327° |
| 2026-04-22 13:47 | 51.24694 | -0.13861 | 18466 ft | 331 kts | 327° |
| 2026-04-22 13:47 | 51.26582 | -0.15969 | 18308 ft | 332 kts | 327° |
| 2026-04-22 13:47 | 51.28478 | -0.18087 | 18162 ft | 333 kts | 327° |
| 2026-04-22 13:48 | 51.30378 | -0.20214 | 18023 ft | 334 kts | 327° |
| 2026-04-22 13:48 | 51.32277 | -0.22343 | 17863 ft | 332 kts | 326° |
| 2026-04-22 13:48 | 51.34163 | -0.24461 | 17725 ft | 330 kts | 327° |
| 2026-04-22 13:48 | 51.36042 | -0.26567 | 17556 ft | 329 kts | 326° |
| 2026-04-22 13:49 | 51.37913 | -0.28668 | 17422 ft | 327 kts | 327° |
| 2026-04-22 13:49 | 51.39772 | -0.30758 | 17271 ft | 326 kts | 327° |
| 2026-04-22 13:49 | 51.41672 | -0.32716 | 17107 ft | 323 kts | 339° |
| 2026-04-22 13:49 | 51.43821 | -0.33506 | 16975 ft | 314 kts | 2° |
| 2026-04-22 13:50 | 51.45251 | -0.33308 | 16897 ft | 311 kts | 16° |
| 2026-04-22 13:50 | 51.47984 | -0.32080 | 16468 ft | 313 kts | 5° |
| 2026-04-22 13:50 | 51.50116 | -0.32767 | 15984 ft | 319 kts | 335° |
| 2026-04-22 13:50 | 51.51841 | -0.34993 | 15509 ft | 318 kts | 316° |
| 2026-04-22 13:51 | 51.53443 | -0.37454 | 14930 ft | 320 kts | 319° |
| 2026-04-22 13:51 | 51.55102 | -0.39800 | 14544 ft | 315 kts | 321° |
| 2026-04-22 13:51 | 51.56778 | -0.42061 | 14048 ft | 315 kts | 321° |
| 2026-04-22 13:51 | 51.58469 | -0.44281 | 13550 ft | 312 kts | 322° |
| 2026-04-22 13:52 | 51.60157 | -0.46462 | 13048 ft | 311 kts | 322° |
| 2026-04-22 13:52 | 51.61843 | -0.48623 | 12594 ft | 309 kts | 323° |
| 2026-04-22 13:52 | 51.63521 | -0.50768 | 12131 ft | 307 kts | 322° |
| 2026-04-22 13:52 | 51.65197 | -0.52909 | 11647 ft | 307 kts | 322° |
| 2026-04-22 13:53 | 51.66860 | -0.55033 | 11258 ft | 303 kts | 323° |
| 2026-04-22 13:53 | 51.68504 | -0.57134 | 10803 ft | 302 kts | 322° |
| 2026-04-22 13:53 | 51.70155 | -0.59245 | 10360 ft | 302 kts | 323° |
| 2026-04-22 13:53 | 51.71788 | -0.61331 | 9974 ft | 298 kts | 322° |
| 2026-04-22 13:54 | 51.73414 | -0.63414 | 9485 ft | 298 kts | 323° |
| 2026-04-22 13:54 | 51.75029 | -0.65487 | 9047 ft | 296 kts | 323° |
| 2026-04-22 13:54 | 51.76708 | -0.67352 | 8600 ft | 291 kts | 340° |
| 2026-04-22 13:54 | 51.78643 | -0.67996 | 8072 ft | 283 kts | 6° |
| 2026-04-22 13:55 | 51.80518 | -0.67171 | 7314 ft | 280 kts | 37° |
| 2026-04-22 13:55 | 51.81918 | -0.65050 | 6580 ft | 276 kts | 58° |
| 2026-04-22 13:55 | 51.82913 | -0.62406 | 5819 ft | 276 kts | 69° |
| 2026-04-22 13:55 | 51.83591 | -0.59501 | 5061 ft | 277 kts | 76° |
| 2026-04-22 13:56 | 51.84095 | -0.56516 | 4320 ft | 272 kts | 77° |
| 2026-04-22 13:56 | 51.84578 | -0.53611 | 3556 ft | 263 kts | 75° |
| 2026-04-22 13:56 | 51.85057 | -0.50826 | 2860 ft | 253 kts | 75° |
| 2026-04-22 13:56 | 51.85520 | -0.48115 | 2111 ft | 247 kts | 75° |